createdAt,value
2019-04-11T00:02:31.092Z,101503.00
2019-04-11T00:05:02.655Z,101501.00
2019-04-11T00:07:34.472Z,101502.00
2019-04-11T00:10:06.601Z,101508.00
2019-04-11T00:12:38.849Z,101506.00
2019-04-11T00:15:10.742Z,101503.00
2019-04-11T00:17:42.451Z,101501.00
2019-04-11T00:20:14.175Z,101504.00
2019-04-11T00:22:45.864Z,101503.00
2019-04-11T00:25:17.725Z,101507.00
2019-04-11T00:27:49.376Z,101506.00
2019-04-11T00:30:22.590Z,101515.00
2019-04-11T00:32:54.211Z,101510.00
2019-04-11T00:35:26.049Z,101499.00
2019-04-11T00:37:57.636Z,101513.00
2019-04-11T00:40:29.280Z,101511.00
2019-04-11T00:43:01.146Z,101516.00
2019-04-11T00:45:33.863Z,101514.00
2019-04-11T00:48:05.828Z,101515.00
2019-04-11T00:50:37.543Z,101522.00
2019-04-11T00:53:09.765Z,101513.00
2019-04-11T00:55:43.916Z,101514.00
2019-04-11T00:58:17.160Z,101515.00
2019-04-11T01:00:48.839Z,101509.00
2019-04-11T01:03:20.497Z,101519.00
2019-04-11T01:05:52.096Z,101518.00
2019-04-11T01:08:23.957Z,101522.00
2019-04-11T01:10:55.528Z,101523.00
2019-04-11T01:13:39.218Z,101520.00
2019-04-11T01:16:16.480Z,101517.00
2019-04-11T01:18:48.106Z,101526.00
2019-04-11T01:21:21.078Z,101526.00
2019-04-11T01:23:53.415Z,101525.00
2019-04-11T01:26:25.381Z,101532.00
2019-04-11T01:28:58.770Z,101529.00
2019-04-11T01:31:33.645Z,101526.00
2019-04-11T01:34:06.511Z,101532.00
2019-04-11T01:36:38.138Z,101531.00
2019-04-11T01:39:35.284Z,101530.00
2019-04-11T01:42:07.090Z,101530.00
2019-04-11T01:44:43.022Z,101543.00
2019-04-11T01:47:18.183Z,101549.00
2019-04-11T01:49:49.968Z,101552.00
2019-04-11T01:52:22.431Z,101545.00
2019-04-11T01:54:54.206Z,101553.00
2019-04-11T01:57:25.673Z,101560.00
2019-04-11T01:59:57.140Z,101550.00
2019-04-11T02:02:38.848Z,101551.00
2019-04-11T02:05:32.835Z,101553.00
2019-04-11T02:08:23.522Z,101557.00
2019-04-11T02:10:55.078Z,101562.00
2019-04-11T02:13:27.785Z,101561.00
2019-04-11T02:16:01.302Z,101563.00
2019-04-11T02:18:33.147Z,101572.00
2019-04-11T02:21:05.243Z,101568.00
2019-04-11T02:24:05.789Z,101576.00
2019-04-11T02:26:37.787Z,101572.00
2019-04-11T02:29:13.051Z,101573.00
2019-04-11T02:31:46.344Z,101571.00
2019-04-11T02:34:19.275Z,101578.00
2019-04-11T02:36:54.231Z,101581.00
2019-04-11T02:39:29.422Z,101592.00
2019-04-11T02:42:01.445Z,101593.00
2019-04-11T02:44:51.112Z,101597.00
2019-04-11T02:47:11.487Z,101598.00
2019-04-11T02:49:41.362Z,101599.00
2019-04-11T02:52:13.423Z,101591.00
2019-04-11T02:54:45.354Z,101598.00
2019-04-11T02:57:23.415Z,101605.00
2019-04-11T02:59:56.394Z,101588.00
2019-04-11T03:02:28.100Z,101594.00
2019-04-11T03:05:00.460Z,101606.00
2019-04-11T03:07:34.054Z,101603.00
2019-04-11T03:10:07.361Z,101609.00
2019-04-11T03:12:40.493Z,101613.00
2019-04-11T03:15:27.491Z,101607.00
2019-04-11T03:17:47.961Z,101602.00
2019-04-11T03:20:30.463Z,101603.00
2019-04-11T03:22:58.221Z,101602.00
2019-04-11T03:25:28.405Z,101615.00
2019-04-11T03:28:01.510Z,101609.00
2019-04-11T03:30:57.407Z,101609.00
2019-04-11T03:38:38.451Z,101604.00
2019-04-11T03:41:05.860Z,101614.00
2019-04-11T03:43:34.458Z,101613.00
2019-04-11T03:46:14.312Z,101621.00
2019-04-11T03:48:40.978Z,101615.00
2019-04-11T03:51:03.989Z,101539.00
2019-04-11T03:53:37.170Z,101621.00
2019-04-11T03:56:09.803Z,101624.00
2019-04-11T03:58:43.614Z,101629.00
2019-04-11T04:01:16.369Z,101628.00
2019-04-11T04:03:49.017Z,101628.00
2019-04-11T04:06:23.323Z,101631.00
2019-04-11T04:08:55.776Z,101625.00
2019-04-11T04:11:29.885Z,101628.00
2019-04-11T04:14:29.247Z,101629.00
2019-04-11T04:17:39.359Z,101641.00
2019-04-11T04:20:30.932Z,101638.00
2019-04-11T04:23:16.635Z,101653.00
2019-04-11T04:25:51.519Z,101657.00
2019-04-11T04:28:23.696Z,101657.00
2019-04-11T04:30:55.450Z,101662.00
2019-04-11T04:33:28.764Z,101660.00
2019-04-11T04:36:02.154Z,101655.00
2019-04-11T04:38:35.547Z,101667.00
2019-04-11T04:41:23.836Z,101659.00
2019-04-11T04:43:45.641Z,101661.00
2019-04-11T04:46:34.728Z,101667.00
2019-04-11T04:48:54.002Z,101667.00
2019-04-11T04:51:28.874Z,101673.00
2019-04-11T04:54:00.644Z,101677.00
2019-04-11T04:56:33.103Z,101676.00
2019-04-11T04:59:07.092Z,101682.00
2019-04-11T05:01:39.361Z,101679.00
2019-04-11T05:04:13.504Z,101680.00
2019-04-11T05:06:48.232Z,101681.00
2019-04-11T05:09:18.197Z,101681.00
2019-04-11T05:11:50.793Z,101681.00
2019-04-11T05:14:23.361Z,101681.00
2019-04-11T05:16:58.035Z,101686.00
2019-04-11T05:19:30.038Z,101685.00
2019-04-11T05:22:01.940Z,101690.00
2019-04-11T05:24:34.748Z,101696.00
2019-04-11T05:27:06.459Z,101696.00
2019-04-11T05:29:38.163Z,101702.00
2019-04-11T05:32:09.728Z,101687.00
2019-04-11T05:34:41.493Z,101699.00
2019-04-11T05:37:13.234Z,101706.00
2019-04-11T05:39:44.999Z,101704.00
2019-04-11T05:42:19.448Z,101707.00
2019-04-11T05:44:50.349Z,101716.00
2019-04-11T05:47:23.445Z,101708.00
2019-04-11T05:50:07.633Z,101712.00
2019-04-11T05:52:37.084Z,101718.00
2019-04-11T05:55:11.881Z,101721.00
2019-04-11T05:57:44.948Z,101712.00
2019-04-11T06:00:21.722Z,101708.00
2019-04-11T06:02:59.744Z,101717.00
2019-04-11T06:05:49.909Z,101721.00
2019-04-11T06:08:27.090Z,101723.00
2019-04-11T06:11:19.162Z,101725.00
2019-04-11T06:14:07.353Z,101725.00
2019-04-11T06:16:51.981Z,101726.00
2019-04-11T06:19:50.115Z,101726.00
2019-04-11T06:22:21.819Z,101744.00
2019-04-11T06:25:25.786Z,101743.00
2019-04-11T06:28:18.283Z,101736.00
2019-04-11T06:31:11.448Z,101740.00
2019-04-11T06:33:47.623Z,101741.00
2019-04-11T06:36:46.866Z,101749.00
2019-04-11T06:39:43.481Z,101745.00
2019-04-11T06:42:27.068Z,101752.00
2019-04-11T06:45:13.490Z,101742.00
2019-04-11T06:48:10.152Z,101744.00
2019-04-11T06:51:01.750Z,101744.00
2019-04-11T06:53:37.006Z,101745.00
2019-04-11T06:56:23.268Z,101753.00
2019-04-11T06:59:01.725Z,101748.00
2019-04-11T07:01:34.220Z,101756.00
2019-04-11T07:04:09.690Z,101756.00
2019-04-11T07:06:43.727Z,101752.00
2019-04-11T07:09:34.956Z,101754.00
2019-04-11T07:12:10.627Z,101762.00
2019-04-11T07:15:04.498Z,101762.00
2019-04-11T07:17:54.688Z,101759.00
2019-04-11T07:20:45.576Z,101762.00
2019-04-11T07:23:36.328Z,101758.00
2019-04-11T07:26:33.298Z,101763.00
2019-04-11T07:29:24.056Z,101768.00
2019-04-11T07:32:16.294Z,101771.00
2019-04-11T07:35:10.987Z,101769.00
2019-04-11T07:37:44.697Z,101767.00
2019-04-11T07:40:35.240Z,101772.00
2019-04-11T07:43:43.231Z,101768.00
2019-04-11T07:46:49.534Z,101779.00
2019-04-11T07:49:26.475Z,101772.00
2019-04-11T07:52:02.396Z,101783.00
2019-04-11T07:54:35.220Z,101775.00
2019-04-11T07:57:31.985Z,101783.00
2019-04-11T08:00:41.709Z,101786.00
2019-04-11T08:03:27.723Z,101780.00
2019-04-11T08:06:16.384Z,101783.00
2019-04-11T08:09:05.475Z,101781.00
2019-04-11T08:11:54.295Z,101785.00
2019-04-11T08:14:42.644Z,101790.00
2019-04-11T08:17:27.975Z,101785.00
2019-04-11T08:20:13.173Z,101783.00
2019-04-11T08:22:51.480Z,101790.00
2019-04-11T08:25:41.905Z,101785.00
2019-04-11T08:28:14.866Z,101781.00
2019-04-11T08:31:21.535Z,101786.00
2019-04-11T08:33:55.145Z,101785.00
2019-04-11T08:36:48.942Z,101784.00
2019-04-11T08:39:27.604Z,101782.00
2019-04-11T08:42:18.630Z,101791.00
2019-04-11T08:44:50.604Z,101791.00
2019-04-11T08:47:22.577Z,101790.00
2019-04-11T08:49:57.026Z,101795.00
2019-04-11T08:52:40.211Z,101798.00
2019-04-11T08:55:23.086Z,101790.00
2019-04-11T08:58:00.282Z,101797.00
2019-04-11T09:01:00.639Z,101794.00
2019-04-11T09:04:02.061Z,101798.00
2019-04-11T09:06:30.584Z,101795.00
2019-04-11T09:09:23.141Z,101803.00
2019-04-11T09:11:58.415Z,101792.00
2019-04-11T09:14:49.081Z,101793.00
2019-04-11T09:17:54.908Z,101796.00
2019-04-11T09:20:38.122Z,101790.00
2019-04-11T09:23:14.740Z,101795.00
2019-04-11T09:26:05.186Z,101788.00
2019-04-11T09:28:49.463Z,101788.00
2019-04-11T09:31:41.420Z,101788.00
2019-04-11T09:34:38.727Z,101790.00
2019-04-11T09:37:30.459Z,101792.00
2019-04-11T09:40:24.308Z,101795.00
2019-04-11T09:43:14.289Z,101793.00
2019-04-11T09:46:03.834Z,101790.00
2019-04-11T09:48:44.330Z,101788.00
2019-04-11T09:51:38.085Z,101789.00
2019-04-11T09:54:28.284Z,101792.00
2019-04-11T09:57:18.573Z,101798.00
2019-04-11T10:00:12.429Z,101789.00
2019-04-11T10:03:13.151Z,101793.00
2019-04-11T10:06:15.938Z,101790.00
2019-04-11T10:08:52.711Z,101799.00
2019-04-11T10:11:44.126Z,101796.00
2019-04-11T10:14:17.736Z,101804.00
2019-04-11T10:17:06.987Z,101801.00
2019-04-11T10:19:57.505Z,101808.00
2019-04-11T10:22:48.216Z,101808.00
2019-04-11T10:25:32.293Z,101802.00
2019-04-11T10:28:21.687Z,101798.00
2019-04-11T10:31:22.325Z,101807.00
2019-04-11T10:34:13.505Z,101803.00
2019-04-11T10:36:57.345Z,101804.00
2019-04-11T10:40:00.211Z,101809.00
2019-04-11T10:42:32.915Z,101803.00
2019-04-11T10:45:25.216Z,101801.00
2019-04-11T10:47:58.692Z,101800.00
2019-04-11T10:50:56.167Z,101774.00
2019-04-11T10:53:27.974Z,101760.00
2019-04-11T10:56:24.505Z,101799.00
2019-04-11T10:58:59.437Z,101799.00
2019-04-11T11:01:49.047Z,101801.00
2019-04-11T11:04:27.520Z,101800.00
2019-04-11T11:07:02.656Z,101804.00
2019-04-11T11:09:56.711Z,101806.00
2019-04-11T11:12:47.572Z,101796.00
2019-04-11T11:15:25.375Z,101799.00
2019-04-11T11:18:48.094Z,101802.00
2019-04-11T11:21:06.066Z,101803.00
2019-04-11T11:23:56.947Z,101804.00
2019-04-11T11:26:36.493Z,101811.00
2019-04-11T11:29:37.136Z,101817.00
2019-04-11T11:32:27.934Z,101819.00
2019-04-11T11:35:37.085Z,101814.00
2019-04-11T11:38:11.414Z,101818.00
2019-04-11T11:41:01.453Z,101825.00
2019-04-11T11:43:35.063Z,101826.00
2019-04-11T11:46:36.319Z,101823.00
2019-04-11T11:49:12.847Z,101819.00
2019-04-11T11:52:09.199Z,101831.00
2019-04-11T11:54:51.559Z,101828.00
2019-04-11T11:57:48.830Z,101826.00
2019-04-11T12:00:27.231Z,101837.00
2019-04-11T12:03:31.131Z,101824.00
2019-04-11T12:06:05.375Z,101825.00
2019-04-11T12:08:54.026Z,101822.00
2019-04-11T12:11:26.277Z,101821.00
2019-04-11T12:14:29.805Z,101824.00
2019-04-11T12:17:23.253Z,101824.00
2019-04-11T12:20:12.928Z,101825.00
2019-04-11T12:22:44.370Z,101822.00
2019-04-11T12:25:33.978Z,101811.00
2019-04-11T12:28:39.870Z,101821.00
2019-04-11T12:31:11.622Z,101821.00
2019-04-11T12:34:12.331Z,101814.00
2019-04-11T12:36:48.041Z,101815.00
2019-04-11T12:39:36.163Z,101814.00
2019-04-11T12:42:16.092Z,101823.00
2019-04-11T12:45:06.558Z,101819.00
2019-04-11T12:47:57.648Z,101814.00
2019-04-11T12:50:48.352Z,101809.00
2019-04-11T12:53:24.809Z,101812.00
2019-04-11T12:56:15.052Z,101821.00
2019-04-11T12:59:08.496Z,101807.00
2019-04-11T13:01:57.761Z,101813.00
2019-04-11T13:04:34.048Z,101809.00
2019-04-11T13:07:34.042Z,101812.00
2019-04-11T13:10:27.783Z,101813.00
2019-04-11T13:13:18.754Z,101812.00
2019-04-11T13:16:11.342Z,101816.00
2019-04-11T13:19:03.377Z,101815.00
2019-04-11T13:21:50.499Z,101816.00
2019-04-11T13:24:39.688Z,101808.00
2019-04-11T13:27:30.367Z,101811.00
2019-04-11T13:30:20.730Z,101816.00
2019-04-11T13:33:09.449Z,101817.00
2019-04-11T13:36:06.434Z,101820.00
2019-04-11T13:38:42.822Z,101826.00
2019-04-11T13:41:32.337Z,101829.00
2019-04-11T13:44:09.934Z,101820.00
2019-04-11T13:47:00.715Z,101820.00
2019-04-11T13:49:46.607Z,101822.00
2019-04-11T13:52:37.187Z,101818.00
2019-04-11T13:55:20.218Z,101816.00
2019-04-11T13:58:10.648Z,101815.00
2019-04-11T14:00:52.907Z,101816.00
2019-04-11T14:03:49.253Z,101817.00
2019-04-11T14:06:32.356Z,101807.00
2019-04-11T14:09:24.622Z,101811.00
2019-04-11T14:11:57.915Z,101812.00
2019-04-11T14:14:35.928Z,101777.00
2019-04-11T14:17:21.771Z,101817.00
2019-04-11T14:20:28.529Z,101804.00
2019-04-11T14:23:14.687Z,101814.00
2019-04-11T14:26:24.164Z,101810.00
2019-04-11T14:29:20.419Z,101815.00
2019-04-11T14:32:10.907Z,101808.00
2019-04-11T14:35:00.126Z,101804.00
2019-04-11T14:37:56.443Z,101808.00
2019-04-11T14:41:00.980Z,101807.00
2019-04-11T14:43:28.057Z,101800.00
2019-04-11T14:46:24.525Z,101793.00
2019-04-11T14:49:11.187Z,101799.00
2019-04-11T14:52:00.657Z,101803.00
2019-04-11T14:54:48.870Z,101769.00
2019-04-11T14:57:46.748Z,101789.00
2019-04-11T15:00:25.093Z,101796.00
2019-04-11T15:03:23.096Z,101795.00
2019-04-11T15:06:02.246Z,101797.00
2019-04-11T15:09:01.839Z,101647.00
2019-04-11T15:12:04.892Z,101803.00
2019-04-11T15:14:54.236Z,101804.00
2019-04-11T15:17:28.818Z,101798.00
2019-04-11T15:20:10.199Z,101804.00
2019-04-11T15:22:47.378Z,101809.00
2019-04-11T15:25:33.416Z,101814.00
2019-04-11T15:28:26.729Z,101809.00
2019-04-11T15:31:01.886Z,101805.00
2019-04-11T15:33:51.346Z,101809.00
2019-04-11T15:36:27.507Z,101819.00
2019-04-11T15:39:14.883Z,101809.00
2019-04-11T15:41:46.690Z,101801.00
2019-04-11T15:44:52.680Z,101807.00
2019-04-11T15:47:24.293Z,101805.00
2019-04-11T15:50:03.835Z,101809.00
2019-04-11T15:52:37.031Z,101803.00
2019-04-11T15:55:31.118Z,101808.00
2019-04-11T15:58:02.781Z,101802.00
2019-04-11T16:00:59.062Z,101802.00
2019-04-11T16:03:30.668Z,101804.00
2019-04-11T16:06:19.958Z,101805.00
2019-04-11T16:08:56.912Z,101806.00
2019-04-11T16:11:53.515Z,101804.00
2019-04-11T16:14:30.146Z,101806.00
2019-04-11T16:17:20.619Z,101813.00
2019-04-11T16:19:54.701Z,101813.00
2019-04-11T16:22:44.513Z,101818.00
2019-04-11T16:25:23.144Z,101815.00
2019-04-11T16:28:25.872Z,101821.00
2019-04-11T16:30:59.715Z,101818.00
2019-04-11T16:34:02.422Z,101813.00
2019-04-11T16:36:43.939Z,101817.00
2019-04-11T16:39:49.977Z,101823.00
2019-04-11T16:42:38.706Z,101820.00
2019-04-11T16:45:32.193Z,101819.00
2019-04-11T16:48:02.884Z,101826.00
2019-04-11T16:50:35.095Z,101828.00
2019-04-11T16:53:10.538Z,101829.00
2019-04-11T16:55:43.159Z,101825.00
2019-04-11T16:58:16.969Z,101824.00
2019-04-11T17:00:52.199Z,101826.00
2019-04-11T17:03:20.078Z,101828.00
2019-04-11T17:06:03.961Z,101835.00
2019-04-11T17:08:46.645Z,101834.00
2019-04-11T17:11:21.469Z,101835.00
2019-04-11T17:13:57.013Z,101842.00
2019-04-11T17:16:31.119Z,101845.00
2019-04-11T17:19:05.393Z,101842.00
2019-04-11T17:21:43.027Z,101841.00
2019-04-11T17:24:09.398Z,101843.00
2019-04-11T17:26:40.976Z,101840.00
2019-04-11T17:29:13.079Z,101810.00
2019-04-11T17:31:44.702Z,101838.00
2019-04-11T17:34:16.257Z,101839.00
2019-04-11T17:36:47.892Z,101818.00
2019-04-11T17:39:19.509Z,101852.00
2019-04-11T17:41:52.168Z,101850.00
2019-04-11T17:44:23.711Z,101850.00
2019-04-11T17:46:56.801Z,101853.00
2019-04-11T17:49:28.634Z,101848.00
2019-04-11T17:52:00.368Z,101860.00
2019-04-11T17:54:32.079Z,101857.00
2019-04-11T17:57:03.781Z,101862.00
2019-04-11T17:59:35.294Z,101856.00
2019-04-11T18:02:11.178Z,101860.00
2019-04-11T18:04:45.827Z,101863.00
2019-04-11T18:07:17.606Z,101870.00
2019-04-11T18:09:49.321Z,101869.00
2019-04-11T18:12:21.108Z,101876.00
2019-04-11T18:14:53.370Z,101870.00
2019-04-11T18:17:24.927Z,101889.00
2019-04-11T18:19:56.571Z,101880.00
2019-04-11T18:22:28.392Z,101882.00
2019-04-11T18:25:00.239Z,101895.00
2019-04-11T18:27:32.072Z,101893.00
2019-04-11T18:30:04.341Z,101897.00
2019-04-11T18:32:36.320Z,101903.00
2019-04-11T18:35:09.018Z,101910.00
2019-04-11T18:37:40.931Z,101911.00
2019-04-11T18:40:12.945Z,101905.00
2019-04-11T18:42:44.689Z,101905.00
2019-04-11T18:45:18.127Z,101909.00
2019-04-11T18:47:50.887Z,101921.00
2019-04-11T18:50:23.472Z,101915.00
2019-04-11T18:52:59.315Z,101916.00
2019-04-11T18:55:28.671Z,101916.00
2019-04-11T18:58:03.761Z,101924.00
2019-04-11T19:00:35.861Z,101914.00
2019-04-11T19:03:08.131Z,101917.00
2019-04-11T19:05:42.996Z,101919.00
2019-04-11T19:08:14.925Z,101919.00
2019-04-11T19:10:46.951Z,101922.00
2019-04-11T19:13:18.769Z,101926.00
2019-04-11T19:15:50.589Z,101925.00
2019-04-11T19:18:22.187Z,101922.00
2019-04-11T19:20:54.764Z,101921.00
2019-04-11T19:23:26.940Z,101926.00
2019-04-11T19:25:58.615Z,101929.00
2019-04-11T19:28:31.167Z,101932.00
2019-04-11T19:31:03.489Z,101925.00
2019-04-11T19:33:35.166Z,101930.00
2019-04-11T19:36:07.131Z,101935.00
2019-04-11T19:38:42.979Z,101943.00
2019-04-11T19:41:17.137Z,101944.00
2019-04-11T19:43:49.207Z,101940.00
2019-04-11T19:46:21.033Z,101946.00
2019-04-11T19:48:57.063Z,101943.00
2019-04-11T19:51:29.056Z,101951.00
2019-04-11T19:54:03.224Z,101943.00
2019-04-11T19:56:39.860Z,101951.00
2019-04-11T19:59:11.500Z,101944.00
2019-04-11T20:01:43.112Z,101946.00
2019-04-11T20:04:15.293Z,101941.00
2019-04-11T20:06:47.046Z,101947.00
2019-04-11T20:09:20.347Z,101946.00
2019-04-11T20:11:52.164Z,101946.00
2019-04-11T20:14:24.068Z,101945.00
2019-04-11T20:17:00.790Z,101946.00
2019-04-11T20:19:32.564Z,101949.00
2019-04-11T20:22:08.315Z,101954.00
2019-04-11T20:24:39.036Z,101952.00
2019-04-11T20:27:11.212Z,101950.00
2019-04-11T20:29:42.860Z,101959.00
2019-04-11T20:32:14.938Z,101957.00
2019-04-11T20:34:46.592Z,101950.00
2019-04-11T20:37:18.316Z,101947.00
2019-04-11T20:39:50.472Z,101959.00
2019-04-11T20:42:31.722Z,101955.00
2019-04-11T20:45:03.632Z,101953.00
2019-04-11T20:47:35.565Z,101952.00
2019-04-11T20:50:08.170Z,101960.00
2019-04-11T20:52:39.784Z,101962.00
2019-04-11T20:55:12.060Z,101953.00
2019-04-11T20:57:46.936Z,101953.00
2019-04-11T21:00:18.653Z,101955.00
2019-04-11T21:02:51.376Z,101951.00
2019-04-11T21:05:23.298Z,101957.00
2019-04-11T21:07:55.010Z,101960.00
2019-04-11T21:10:26.890Z,101947.00
2019-04-11T21:12:58.613Z,101950.00
2019-04-11T21:15:32.264Z,101956.00
2019-04-11T21:18:05.004Z,101921.00
2019-04-11T21:20:39.480Z,101952.00
2019-04-11T21:23:10.749Z,101959.00
2019-04-11T21:25:42.953Z,101963.00
2019-04-11T21:28:16.419Z,101967.00
2019-04-11T21:30:48.785Z,101955.00
2019-04-11T21:33:20.590Z,101954.00
2019-04-11T21:35:53.369Z,101953.00
2019-04-11T21:38:24.940Z,101962.00
2019-04-11T21:41:10.105Z,101957.00
2019-04-11T21:43:42.139Z,101961.00
2019-04-11T21:46:14.093Z,101963.00
2019-04-11T21:48:45.690Z,101965.00
2019-04-11T21:51:17.396Z,101969.00
2019-04-11T21:53:49.086Z,101964.00
2019-04-11T21:56:20.616Z,101971.00
2019-04-11T21:58:52.123Z,101970.00
2019-04-11T22:01:25.067Z,101962.00
2019-04-11T22:03:58.017Z,101965.00
2019-04-11T22:06:30.497Z,101963.00
2019-04-11T22:09:05.089Z,101970.00
2019-04-11T22:11:39.207Z,101975.00
2019-04-11T22:14:11.170Z,101963.00
2019-04-11T22:16:45.052Z,101968.00
2019-04-11T22:19:18.396Z,101973.00
2019-04-11T22:21:49.917Z,101970.00
2019-04-11T22:24:22.476Z,101963.00
2019-04-11T22:26:54.034Z,101966.00
2019-04-11T22:29:25.642Z,101971.00
2019-04-11T22:31:57.079Z,101970.00
2019-04-11T22:34:46.100Z,101972.00
2019-04-11T22:37:17.605Z,101972.00
2019-04-11T22:39:49.077Z,101982.00
2019-04-11T22:42:20.566Z,101977.00
2019-04-11T22:44:52.115Z,101983.00
2019-04-11T22:47:23.801Z,101985.00
2019-04-11T22:49:55.241Z,101985.00
2019-04-11T22:52:26.962Z,101988.00
2019-04-11T22:54:59.386Z,101976.00
2019-04-11T22:57:30.930Z,101985.00
2019-04-11T23:00:02.586Z,101977.00
2019-04-11T23:02:41.518Z,101981.00
2019-04-11T23:05:14.979Z,101979.00
2019-04-11T23:07:48.465Z,101981.00
2019-04-11T23:10:19.514Z,101984.00
2019-04-11T23:12:51.189Z,101984.00
2019-04-11T23:15:22.842Z,101983.00
2019-04-11T23:17:54.490Z,101989.00
2019-04-11T23:20:26.112Z,101984.00
2019-04-11T23:22:57.760Z,101987.00
2019-04-11T23:25:29.232Z,101990.00
2019-04-11T23:28:00.743Z,101983.00
2019-04-11T23:30:32.262Z,101981.00
2019-04-11T23:33:03.774Z,101970.00
2019-04-11T23:35:35.340Z,101975.00
2019-04-11T23:38:06.983Z,101981.00
2019-04-11T23:40:38.644Z,101977.00
2019-04-11T23:43:10.226Z,101983.00
2019-04-11T23:45:42.085Z,101983.00
2019-04-11T23:48:14.843Z,101983.00
2019-04-11T23:50:46.329Z,101982.00
2019-04-11T23:53:17.845Z,101982.00
2019-04-11T23:55:49.348Z,101978.00
2019-04-11T23:58:21.043Z,101985.00
